Great Falls/Malmstrom AFB, Montana
Current Conditions -  °F | °C
As of 10:53 AM on Tuesday 21 Oct 2014 (Local Time) from KGTF Reporting Station
Overcast Overcast  
Wind Chill: 59°   Ceiling: 8000
Heat Index: 59°   Visibility: 10mi
Dew Point: 37°   Wind: 5mph
Humidity: 44%   Direction: 30°NNE
Pressure: 29.66"   Gusts: NA
Location:  47.47°N, 111.32°W
Report Text: KGTF 211653Z 03004KT 10SM OVC080 15/03 A2966 RMK AO2 SLP027 T01500028
Loading
Personal Weather Stations






























Interactive Weather Map New forecast layout! Learn more

10-Day Weather Forecast

Advertisements
Track Severe Weather on mobile